Blackwood, United Kingdom
Current Conditions -  °F | °C
As of 8:20 AM on Saturday 29 Nov 2014 (Local Time) from EGFF Reporting Station
Broken Clouds Broken Clouds  
Wind Chill: 50°   Ceiling: 1000
Heat Index: 50°   Visibility: 5mi
Dew Point: 48°   Wind: 12mph
Humidity: 94%   Direction: 70°ENE
Pressure: 29.8"   Gusts: NA
Location:  51.67°N, 3.21°W
Report Text: EGFF 290820Z AUTO 07010KT 8000 BKN010 10/09 Q1009
Loading
Personal Weather Stations






























Interactive Weather Map New forecast layout! Learn more

10-Day Weather Forecast

Advertisements
Track Severe Weather on mobile